sensor_id;sensor_type;location;lat;lon;timestamp;pressure;altitude;pressure_sealevel;temperature;humidity
57094;BME280;42970;50.996;3.706;2023-04-21T00:00:57;75224.59;;;-146.65;64.56
57094;BME280;42970;50.996;3.706;2023-04-21T00:03:25;75216.53;;;-146.65;64.63
57094;BME280;42970;50.996;3.706;2023-04-21T00:05:52;75220.56;;;-146.65;64.92
57094;BME280;42970;50.996;3.706;2023-04-21T00:08:20;75256.88;;;-146.65;65.29
57094;BME280;42970;50.996;3.706;2023-04-21T00:10:45;75254.88;;;-146.65;65.95
57094;BME280;42970;50.996;3.706;2023-04-21T00:13:11;75248.81;;;-146.65;65.48
57094;BME280;42970;50.996;3.706;2023-04-21T00:15:36;75232.69;;;-146.65;65.40
57094;BME280;42970;50.996;3.706;2023-04-21T00:18:01;75214.53;;;-146.65;65.40
57094;BME280;42970;50.996;3.706;2023-04-21T00:20:28;75240.75;;;-146.65;65.47
57094;BME280;42970;50.996;3.706;2023-04-21T00:22:53;75220.56;;;-146.65;65.93
57094;BME280;42970;50.996;3.706;2023-04-21T00:25:19;75210.50;;;-146.65;65.42
57094;BME280;42970;50.996;3.706;2023-04-21T00:27:45;75240.75;;;-146.65;66.20
57094;BME280;42970;50.996;3.706;2023-04-21T00:30:10;75240.75;;;-146.65;66.34
57094;BME280;42970;50.996;3.706;2023-04-21T00:32:36;75258.91;;;-146.65;66.47
57094;BME280;42970;50.996;3.706;2023-04-21T00:35:01;75246.78;;;-146.65;66.42
57094;BME280;42970;50.996;3.706;2023-04-21T00:37:27;75236.72;;;-146.65;66.29
57094;BME280;42970;50.996;3.706;2023-04-21T00:39:52;75228.66;;;-146.65;66.50
57094;BME280;42970;50.996;3.706;2023-04-21T00:42:17;75232.69;;;-146.65;66.62
57094;BME280;42970;50.996;3.706;2023-04-21T00:44:43;75208.47;;;-146.65;66.70
57094;BME280;42970;50.996;3.706;2023-04-21T00:47:08;75192.34;;;-146.65;66.29
57094;BME280;42970;50.996;3.706;2023-04-21T00:49:34;75196.38;;;-146.65;65.80
57094;BME280;42970;50.996;3.706;2023-04-21T00:51:59;75194.34;;;-146.65;65.89
57094;BME280;42970;50.996;3.706;2023-04-21T00:54:25;75190.31;;;-146.65;65.64
57094;BME280;42970;50.996;3.706;2023-04-21T00:56:54;75145.94;;;-146.65;65.71
57094;BME280;42970;50.996;3.706;2023-04-21T00:59:19;75172.16;;;-146.65;65.68
57094;BME280;42970;50.996;3.706;2023-04-21T01:01:45;75182.25;;;-146.65;65.85
57094;BME280;42970;50.996;3.706;2023-04-21T01:04:10;75170.16;;;-146.65;65.61
57094;BME280;42970;50.996;3.706;2023-04-21T01:06:36;75174.19;;;-146.65;65.57
57094;BME280;42970;50.996;3.706;2023-04-21T01:09:01;75129.81;;;-146.65;65.30
57094;BME280;42970;50.996;3.706;2023-04-21T01:11:28;75121.75;;;-146.65;65.22
57094;BME280;42970;50.996;3.706;2023-04-21T01:13:55;75111.66;;;-146.65;64.43
57094;BME280;42970;50.996;3.706;2023-04-21T01:16:20;75083.44;;;-146.65;64.13
57094;BME280;42970;50.996;3.706;2023-04-21T01:18:47;75115.69;;;-146.65;64.98
57094;BME280;42970;50.996;3.706;2023-04-21T01:21:12;75075.38;;;-146.65;64.81
57094;BME280;42970;50.996;3.706;2023-04-21T01:23:41;75105.63;;;-146.65;64.60
57094;BME280;42970;50.996;3.706;2023-04-21T01:26:08;75101.59;;;-146.65;64.95
57094;BME280;42970;50.996;3.706;2023-04-21T01:28:33;75077.38;;;-146.65;64.73
57094;BME280;42970;50.996;3.706;2023-04-21T01:30:59;75061.25;;;-146.65;64.19
57094;BME280;42970;50.996;3.706;2023-04-21T01:33:24;75097.56;;;-146.65;64.78
57094;BME280;42970;50.996;3.706;2023-04-21T01:35:50;75117.72;;;-146.65;65.81
57094;BME280;42970;50.996;3.706;2023-04-21T01:38:15;75123.78;;;-146.65;65.77
57094;BME280;42970;50.996;3.706;2023-04-21T01:40:47;75115.69;;;-146.65;65.99
57094;BME280;42970;50.996;3.706;2023-04-21T01:43:13;75073.34;;;-146.65;65.00
57094;BME280;42970;50.996;3.706;2023-04-21T01:45:39;75095.53;;;-146.65;64.77
57094;BME280;42970;50.996;3.706;2023-04-21T01:48:04;75073.34;;;-146.65;65.32
57094;BME280;42970;50.996;3.706;2023-04-21T01:50:29;75069.31;;;-146.65;65.22
57094;BME280;42970;50.996;3.706;2023-04-21T01:52:55;75105.63;;;-146.65;64.92
57094;BME280;42970;50.996;3.706;2023-04-21T01:55:20;75109.66;;;-146.65;65.63
57094;BME280;42970;50.996;3.706;2023-04-21T01:57:45;75099.56;;;-146.65;65.96
57094;BME280;42970;50.996;3.706;2023-04-21T02:00:11;75085.44;;;-146.65;64.88
57094;BME280;42970;50.996;3.706;2023-04-21T02:02:36;75109.66;;;-146.65;67.19
57094;BME280;42970;50.996;3.706;2023-04-21T02:05:02;75109.66;;;-146.65;67.00
57094;BME280;42970;50.996;3.706;2023-04-21T02:07:27;75107.63;;;-146.65;67.64
57094;BME280;42970;50.996;3.706;2023-04-21T02:09:53;75115.69;;;-146.65;68.12
57094;BME280;42970;50.996;3.706;2023-04-21T02:12:18;75121.75;;;-146.65;69.49
57094;BME280;42970;50.996;3.706;2023-04-21T02:14:43;75133.84;;;-146.65;69.37
57094;BME280;42970;50.996;3.706;2023-04-21T02:17:11;75105.63;;;-146.65;69.79
57094;BME280;42970;50.996;3.706;2023-04-21T02:19:37;75139.91;;;-146.65;70.26
57094;BME280;42970;50.996;3.706;2023-04-21T02:22:02;75133.84;;;-146.65;71.06
57094;BME280;42970;50.996;3.706;2023-04-21T02:24:28;75143.94;;;-146.65;72.18
57094;BME280;42970;50.996;3.706;2023-04-21T02:26:53;75131.84;;;-146.65;72.13
57094;BME280;42970;50.996;3.706;2023-04-21T02:29:18;75137.88;;;-146.65;72.59
57094;BME280;42970;50.996;3.706;2023-04-21T02:31:44;75145.94;;;-146.65;73.13
57094;BME280;42970;50.996;3.706;2023-04-21T02:34:09;75131.84;;;-146.65;73.65
57094;BME280;42970;50.996;3.706;2023-04-21T02:36:34;75107.63;;;-146.65;73.28
57094;BME280;42970;50.996;3.706;2023-04-21T02:39:00;75129.81;;;-146.65;74.78
57094;BME280;42970;50.996;3.706;2023-04-21T02:41:25;75061.25;;;-146.65;74.21
57094;BME280;42970;50.996;3.706;2023-04-21T02:43:50;75115.69;;;-146.65;75.48
57094;BME280;42970;50.996;3.706;2023-04-21T02:46:16;75137.88;;;-146.65;75.53
57094;BME280;42970;50.996;3.706;2023-04-21T02:48:41;75135.88;;;-146.65;77.52
57094;BME280;42970;50.996;3.706;2023-04-21T02:51:10;75133.84;;;-146.65;77.04
57094;BME280;42970;50.996;3.706;2023-04-21T02:53:36;75154.03;;;-146.65;78.15
57094;BME280;42970;50.996;3.706;2023-04-21T02:56:01;75137.88;;;-146.65;77.63
57094;BME280;42970;50.996;3.706;2023-04-21T02:58:29;75123.78;;;-146.65;77.54
57094;BME280;42970;50.996;3.706;2023-04-21T03:00:54;75109.66;;;-146.65;77.83
57094;BME280;42970;50.996;3.706;2023-04-21T03:03:20;75101.59;;;-146.65;77.00
57094;BME280;42970;50.996;3.706;2023-04-21T03:05:45;75089.47;;;-146.65;77.04
57094;BME280;42970;50.996;3.706;2023-04-21T03:08:10;75091.50;;;-146.65;78.43
57094;BME280;42970;50.996;3.706;2023-04-21T03:10:36;75099.56;;;-146.65;77.85
57094;BME280;42970;50.996;3.706;2023-04-21T03:13:02;75091.50;;;-146.65;77.55
57094;BME280;42970;50.996;3.706;2023-04-21T03:15:27;75081.41;;;-146.65;77.33
57094;BME280;42970;50.996;3.706;2023-04-21T03:17:52;75073.34;;;-146.65;77.75
57094;BME280;42970;50.996;3.706;2023-04-21T03:20:17;75089.47;;;-146.65;78.36
57094;BME280;42970;50.996;3.706;2023-04-21T03:22:43;75077.38;;;-146.65;78.58
57094;BME280;42970;50.996;3.706;2023-04-21T03:25:08;75111.66;;;-146.65;79.86
57094;BME280;42970;50.996;3.706;2023-04-21T03:27:34;75091.50;;;-146.65;79.50
57094;BME280;42970;50.996;3.706;2023-04-21T03:29:59;75085.44;;;-146.65;80.12
57094;BME280;42970;50.996;3.706;2023-04-21T03:32:24;75081.41;;;-146.65;79.90
57094;BME280;42970;50.996;3.706;2023-04-21T03:34:50;75047.13;;;-146.65;79.86
57094;BME280;42970;50.996;3.706;2023-04-21T03:37:15;75028.97;;;-146.65;79.63
57094;BME280;42970;50.996;3.706;2023-04-21T03:39:40;75037.03;;;-146.65;80.39
57094;BME280;42970;50.996;3.706;2023-04-21T03:42:06;75024.94;;;-146.65;79.96
57094;BME280;42970;50.996;3.706;2023-04-21T03:44:31;75004.78;;;-146.65;79.44
57094;BME280;42970;50.996;3.706;2023-04-21T03:46:56;75053.19;;;-146.65;81.35
57094;BME280;42970;50.996;3.706;2023-04-21T03:49:22;75051.16;;;-146.65;81.48
57094;BME280;42970;50.996;3.706;2023-04-21T03:51:48;75063.25;;;-146.65;82.05
57094;BME280;42970;50.996;3.706;2023-04-21T03:54:13;75097.56;;;-146.65;83.15
57094;BME280;42970;50.996;3.706;2023-04-21T03:56:38;75069.31;;;-146.65;82.24
57094;BME280;42970;50.996;3.706;2023-04-21T03:59:04;75043.09;;;-146.65;81.71
57094;BME280;42970;50.996;3.706;2023-04-21T04:01:30;75035.03;;;-146.65;82.18
57094;BME280;42970;50.996;3.706;2023-04-21T04:03:55;75069.31;;;-146.65;82.60
57094;BME280;42970;50.996;3.706;2023-04-21T04:06:21;75049.16;;;-146.65;82.78
57094;BME280;42970;50.996;3.706;2023-04-21T04:08:46;75051.16;;;-146.65;83.61
57094;BME280;42970;50.996;3.706;2023-04-21T04:11:11;75035.03;;;-146.65;82.71
57094;BME280;42970;50.996;3.706;2023-04-21T04:13:38;75057.22;;;-146.65;83.56
57094;BME280;42970;50.996;3.706;2023-04-21T04:16:03;75012.84;;;-146.65;82.85
57094;BME280;42970;50.996;3.706;2023-04-21T04:18:29;75051.16;;;-146.65;83.46
57094;BME280;42970;50.996;3.706;2023-04-21T04:20:55;75000.75;;;-146.65;82.44
57094;BME280;42970;50.996;3.706;2023-04-21T04:23:20;75024.94;;;-146.65;83.17
57094;BME280;42970;50.996;3.706;2023-04-21T04:25:45;75045.13;;;-146.65;83.73
57094;BME280;42970;50.996;3.706;2023-04-21T04:28:12;75020.91;;;-146.65;82.98
57094;BME280;42970;50.996;3.706;2023-04-21T04:30:37;75024.94;;;-146.65;83.40
57094;BME280;42970;50.996;3.706;2023-04-21T04:33:03;75065.28;;;-146.65;84.57
57094;BME280;42970;50.996;3.706;2023-04-21T04:35:29;75057.22;;;-146.65;83.70
57094;BME280;42970;50.996;3.706;2023-04-21T04:37:54;75061.25;;;-146.65;84.40
57094;BME280;42970;50.996;3.706;2023-04-21T04:40:21;75099.56;;;-146.65;85.55
57094;BME280;42970;50.996;3.706;2023-04-21T04:42:46;75041.06;;;-146.65;84.76
57094;BME280;42970;50.996;3.706;2023-04-21T04:45:13;75079.41;;;-146.65;85.38
57094;BME280;42970;50.996;3.706;2023-04-21T04:47:38;75083.44;;;-146.65;85.55
57094;BME280;42970;50.996;3.706;2023-04-21T04:50:04;75059.22;;;-146.65;85.21
57094;BME280;42970;50.996;3.706;2023-04-21T04:52:30;75045.13;;;-146.65;84.79
57094;BME280;42970;50.996;3.706;2023-04-21T04:54:56;75045.13;;;-146.65;84.06
57094;BME280;42970;50.996;3.706;2023-04-21T04:57:21;75022.94;;;-146.65;83.89
57094;BME280;42970;50.996;3.706;2023-04-21T04:59:46;75008.81;;;-146.65;84.43
57094;BME280;42970;50.996;3.706;2023-04-21T05:02:12;75049.16;;;-146.65;84.92
57094;BME280;42970;50.996;3.706;2023-04-21T05:04:37;75020.91;;;-146.65;84.77
57094;BME280;42970;50.996;3.706;2023-04-21T05:07:03;75014.84;;;-146.65;85.05
57094;BME280;42970;50.996;3.706;2023-04-21T05:09:30;74988.66;;;-146.65;83.80
57094;BME280;42970;50.996;3.706;2023-04-21T05:11:55;75061.25;;;-146.65;86.03
57094;BME280;42970;50.996;3.706;2023-04-21T05:14:20;75061.25;;;-146.65;86.06
57094;BME280;42970;50.996;3.706;2023-04-21T05:16:46;75059.22;;;-146.65;85.68
57094;BME280;42970;50.996;3.706;2023-04-21T05:19:13;75053.19;;;-146.65;85.33
57094;BME280;42970;50.996;3.706;2023-04-21T05:21:38;75043.09;;;-146.65;85.76
57094;BME280;42970;50.996;3.706;2023-04-21T05:24:03;75045.13;;;-146.65;85.96
57094;BME280;42970;50.996;3.706;2023-04-21T05:26:29;75037.03;;;-146.65;86.06
57094;BME280;42970;50.996;3.706;2023-04-21T05:28:56;75016.88;;;-146.65;85.26
57094;BME280;42970;50.996;3.706;2023-04-21T05:31:22;75000.75;;;-146.65;84.90
57094;BME280;42970;50.996;3.706;2023-04-21T05:33:47;75065.28;;;-146.65;87.24
57094;BME280;42970;50.996;3.706;2023-04-21T05:36:13;75047.13;;;-146.65;86.72
57094;BME280;42970;50.996;3.706;2023-04-21T05:38:38;75037.03;;;-146.65;86.61
57094;BME280;42970;50.996;3.706;2023-04-21T05:41:04;75069.31;;;-146.65;87.29
57094;BME280;42970;50.996;3.706;2023-04-21T05:43:30;75063.25;;;-146.65;87.33
57094;BME280;42970;50.996;3.706;2023-04-21T05:46:01;75049.16;;;-146.65;86.94
57094;BME280;42970;50.996;3.706;2023-04-21T05:48:27;75039.06;;;-146.65;86.80
57094;BME280;42970;50.996;3.706;2023-04-21T05:50:55;75024.94;;;-146.65;86.08
57094;BME280;42970;50.996;3.706;2023-04-21T05:53:20;75047.13;;;-146.65;86.92
57094;BME280;42970;50.996;3.706;2023-04-21T05:55:47;75049.16;;;-146.65;87.79
57094;BME280;42970;50.996;3.706;2023-04-21T05:58:12;75055.19;;;-146.65;87.73
57094;BME280;42970;50.996;3.706;2023-04-21T06:00:38;75028.97;;;-146.65;87.02
57094;BME280;42970;50.996;3.706;2023-04-21T06:03:03;75008.81;;;-146.65;87.26
57094;BME280;42970;50.996;3.706;2023-04-21T06:05:29;75012.84;;;-146.65;86.00
57094;BME280;42970;50.996;3.706;2023-04-21T06:07:54;74996.72;;;-146.65;86.56
57094;BME280;42970;50.996;3.706;2023-04-21T06:10:20;75006.78;;;-146.65;86.78
57094;BME280;42970;50.996;3.706;2023-04-21T06:12:45;74938.22;;;-146.65;85.53
57094;BME280;42970;50.996;3.706;2023-04-21T06:15:11;74964.44;;;-146.65;85.36
57094;BME280;42970;50.996;3.706;2023-04-21T06:17:36;74950.31;;;-146.65;85.07
57094;BME280;42970;50.996;3.706;2023-04-21T06:20:01;74972.50;;;-146.65;85.72
57094;BME280;42970;50.996;3.706;2023-04-21T06:22:28;74934.19;;;-146.65;85.08
57094;BME280;42970;50.996;3.706;2023-04-21T06:24:53;74958.38;;;-146.65;85.91
57094;BME280;42970;50.996;3.706;2023-04-21T06:27:18;74962.44;;;-146.65;85.71
57094;BME280;42970;50.996;3.706;2023-04-21T06:29:44;74920.06;;;-146.65;84.59
57094;BME280;42970;50.996;3.706;2023-04-21T06:32:09;74899.91;;;-146.65;84.11
57094;BME280;42970;50.996;3.706;2023-04-21T06:34:35;74948.31;;;-146.65;84.80
57094;BME280;42970;50.996;3.706;2023-04-21T06:37:00;74954.34;;;-146.65;84.55
57094;BME280;42970;50.996;3.706;2023-04-21T06:39:26;74912.00;;;-146.65;84.70
57094;BME280;42970;50.996;3.706;2023-04-21T06:41:52;74861.59;;;-146.65;83.51
57094;BME280;42970;50.996;3.706;2023-04-21T06:44:17;74853.53;;;-146.65;83.53
57094;BME280;42970;50.996;3.706;2023-04-21T06:46:42;74901.91;;;-146.65;82.90
57094;BME280;42970;50.996;3.706;2023-04-21T06:49:08;74855.53;;;-146.65;83.03
57094;BME280;42970;50.996;3.706;2023-04-21T06:51:33;74847.47;;;-146.65;82.37
57094;BME280;42970;50.996;3.706;2023-04-21T06:53:59;74924.09;;;-146.65;83.36
57094;BME280;42970;50.996;3.706;2023-04-21T06:56:27;74905.97;;;-146.65;83.02
57094;BME280;42970;50.996;3.706;2023-04-21T06:58:53;74863.59;;;-146.65;82.37
57094;BME280;42970;50.996;3.706;2023-04-21T07:01:18;74871.66;;;-146.65;81.69
57094;BME280;42970;50.996;3.706;2023-04-21T07:03:44;74859.56;;;-146.65;82.23
57094;BME280;42970;50.996;3.706;2023-04-21T07:06:10;74891.84;;;-146.65;82.25
57094;BME280;42970;50.996;3.706;2023-04-21T07:08:36;74903.94;;;-146.65;82.56
57094;BME280;42970;50.996;3.706;2023-04-21T07:11:01;74895.88;;;-146.65;82.39
57094;BME280;42970;50.996;3.706;2023-04-21T07:13:27;74821.25;;;-146.65;80.48
57094;BME280;42970;50.996;3.706;2023-04-21T07:15:52;74813.19;;;-146.65;78.98
57094;BME280;42970;50.996;3.706;2023-04-21T07:18:18;74847.47;;;-146.65;79.19
57094;BME280;42970;50.996;3.706;2023-04-21T07:20:43;74809.16;;;-146.65;80.17
57094;BME280;42970;50.996;3.706;2023-04-21T07:23:08;74803.09;;;-146.65;79.83
57094;BME280;42970;50.996;3.706;2023-04-21T07:25:33;74861.59;;;-146.65;79.71
57094;BME280;42970;50.996;3.706;2023-04-21T07:27:59;74843.44;;;-146.65;80.11
57094;BME280;42970;50.996;3.706;2023-04-21T07:30:24;74813.19;;;-146.65;78.21
57094;BME280;42970;50.996;3.706;2023-04-21T07:32:50;74799.06;;;-146.65;78.27
57094;BME280;42970;50.996;3.706;2023-04-21T07:35:15;74801.09;;;-146.65;77.82
57094;BME280;42970;50.996;3.706;2023-04-21T07:37:40;74831.34;;;-146.65;78.43
57094;BME280;42970;50.996;3.706;2023-04-21T07:40:06;74789.00;;;-146.65;77.63
57094;BME280;42970;50.996;3.706;2023-04-21T07:42:32;74786.97;;;-146.65;76.02
57094;BME280;42970;50.996;3.706;2023-04-21T07:44:57;74801.09;;;-146.65;75.40
57094;BME280;42970;50.996;3.706;2023-04-21T07:47:25;74772.84;;;-146.65;75.54
57094;BME280;42970;50.996;3.706;2023-04-21T07:49:50;74702.28;;;-146.65;74.94
57094;BME280;42970;50.996;3.706;2023-04-21T07:52:15;74690.16;;;-146.65;73.69
57094;BME280;42970;50.996;3.706;2023-04-21T07:54:41;74688.16;;;-146.65;73.07
57094;BME280;42970;50.996;3.706;2023-04-21T07:57:08;74742.59;;;-146.65;73.33
57094;BME280;42970;50.996;3.706;2023-04-21T07:59:34;74750.66;;;-146.65;72.77
57094;BME280;42970;50.996;3.706;2023-04-21T08:01:59;74738.56;;;-146.65;72.37
57094;BME280;42970;50.996;3.706;2023-04-21T08:04:25;74704.28;;;-146.65;72.46
57094;BME280;42970;50.996;3.706;2023-04-21T08:06:50;74708.31;;;-146.65;70.65
57094;BME280;42970;50.996;3.706;2023-04-21T08:09:15;74686.13;;;-146.65;71.96
57094;BME280;42970;50.996;3.706;2023-04-21T08:11:41;74696.22;;;-146.65;69.89
57094;BME280;42970;50.996;3.706;2023-04-21T08:14:06;74772.84;;;-146.65;69.63
57094;BME280;42970;50.996;3.706;2023-04-21T08:16:34;74706.31;;;-146.65;68.85
57094;BME280;42970;50.996;3.706;2023-04-21T08:18:59;74670.00;;;-146.65;68.16
57094;BME280;42970;50.996;3.706;2023-04-21T08:21:25;74633.72;;;-146.65;68.44
57094;BME280;42970;50.996;3.706;2023-04-21T08:23:50;74631.69;;;-146.65;65.58
57094;BME280;42970;50.996;3.706;2023-04-21T08:26:16;74581.28;;;-146.65;66.84
57094;BME280;42970;50.996;3.706;2023-04-21T08:28:43;74597.41;;;-146.65;65.05
57094;BME280;42970;50.996;3.706;2023-04-21T08:31:08;74597.41;;;-146.65;64.08
57094;BME280;42970;50.996;3.706;2023-04-21T08:33:33;74601.44;;;-146.65;62.01
57094;BME280;42970;50.996;3.706;2023-04-21T08:35:58;74609.50;;;-146.65;61.73
57094;BME280;42970;50.996;3.706;2023-04-21T08:38:24;74559.09;;;-146.65;63.50
57094;BME280;42970;50.996;3.706;2023-04-21T08:40:49;74583.28;;;-146.65;60.25
57094;BME280;42970;50.996;3.706;2023-04-21T08:43:15;74565.16;;;-146.65;61.09
57094;BME280;42970;50.996;3.706;2023-04-21T08:45:40;74520.78;;;-146.65;59.66
57094;BME280;42970;50.996;3.706;2023-04-21T08:48:06;74436.09;;;-146.65;57.18
57094;BME280;42970;50.996;3.706;2023-04-21T08:50:33;74482.47;;;-146.65;57.36
57094;BME280;42970;50.996;3.706;2023-04-21T08:53:00;74444.16;;;-146.65;60.01
57094;BME280;42970;50.996;3.706;2023-04-21T08:55:28;74530.88;;;-146.65;58.90
57094;BME280;42970;50.996;3.706;2023-04-21T08:57:53;74544.97;;;-146.65;57.99
57094;BME280;42970;50.996;3.706;2023-04-21T09:00:19;74426.00;;;-146.65;58.54
57094;BME280;42970;50.996;3.706;2023-04-21T09:02:57;74385.69;;;-146.65;56.49
57094;BME280;42970;50.996;3.706;2023-04-21T09:05:24;74331.22;;;-146.65;54.04
57094;BME280;42970;50.996;3.706;2023-04-21T09:07:50;74327.19;;;-146.65;55.70
57094;BME280;42970;50.996;3.706;2023-04-21T09:10:22;74343.31;;;-146.65;53.62
57094;BME280;42970;50.996;3.706;2023-04-21T09:12:53;74335.25;;;-146.65;56.14
57094;BME280;42970;50.996;3.706;2023-04-21T09:15:21;74363.50;;;-146.65;55.68
57094;BME280;42970;50.996;3.706;2023-04-21T09:17:46;74424.00;;;-146.65;55.27
57094;BME280;42970;50.996;3.706;2023-04-21T09:20:19;74494.56;;;-146.65;57.76
57094;BME280;42970;50.996;3.706;2023-04-21T09:22:47;74456.25;;;-146.65;55.78
57094;BME280;42970;50.996;3.706;2023-04-21T09:25:19;74436.09;;;-146.65;56.09
57094;BME280;42970;50.996;3.706;2023-04-21T09:27:45;74399.78;;;-146.65;53.28
57094;BME280;42970;50.996;3.706;2023-04-21T09:30:11;74309.06;;;-146.65;53.74
57094;BME280;42970;50.996;3.706;2023-04-21T09:32:37;74325.19;;;-146.65;51.89
57094;BME280;42970;50.996;3.706;2023-04-21T09:35:03;74216.28;;;-146.65;49.92
57094;BME280;42970;50.996;3.706;2023-04-21T09:37:31;74288.88;;;-146.65;50.53
57094;BME280;42970;50.996;3.706;2023-04-21T09:39:56;74188.06;;;-146.65;50.52
57094;BME280;42970;50.996;3.706;2023-04-21T09:42:30;74282.84;;;-146.65;50.59
57094;BME280;42970;50.996;3.706;2023-04-21T09:44:55;74258.63;;;-146.65;48.63
57094;BME280;42970;50.996;3.706;2023-04-21T09:47:21;74198.16;;;-146.65;48.48
57094;BME280;42970;50.996;3.706;2023-04-21T09:49:46;74214.28;;;-146.65;46.96
57094;BME280;42970;50.996;3.706;2023-04-21T09:52:15;74212.25;;;-146.65;47.93
57094;BME280;42970;50.996;3.706;2023-04-21T09:54:46;74137.66;;;-146.65;47.56
57094;BME280;42970;50.996;3.706;2023-04-21T09:57:13;74069.09;;;-146.65;44.62
57094;BME280;42970;50.996;3.706;2023-04-21T09:59:44;74093.31;;;-146.65;46.88
57094;BME280;42970;50.996;3.706;2023-04-21T10:02:09;74113.47;;;-146.65;45.87
57094;BME280;42970;50.996;3.706;2023-04-21T10:04:36;74165.88;;;-146.65;45.81
57094;BME280;42970;50.996;3.706;2023-04-21T10:07:02;74121.53;;;-146.65;45.91
57094;BME280;42970;50.996;3.706;2023-04-21T10:09:36;74000.53;;;-146.65;45.70
57094;BME280;42970;50.996;3.706;2023-04-21T10:12:03;74085.22;;;-146.65;44.01
57094;BME280;42970;50.996;3.706;2023-04-21T10:14:28;74048.94;;;-146.65;43.44
57094;BME280;42970;50.996;3.706;2023-04-21T10:17:09;74042.88;;;-146.65;43.48
57094;BME280;42970;50.996;3.706;2023-04-21T10:19:35;73923.94;;;-146.65;43.24
57094;BME280;42970;50.996;3.706;2023-04-21T10:22:07;74030.78;;;-146.65;42.22
57094;BME280;42970;50.996;3.706;2023-04-21T10:24:39;73885.63;;;-146.65;42.91
57094;BME280;42970;50.996;3.706;2023-04-21T10:27:06;73958.22;;;-146.65;41.15
57094;BME280;42970;50.996;3.706;2023-04-21T10:29:33;73976.34;;;-146.65;40.98
57094;BME280;42970;50.996;3.706;2023-04-21T10:31:58;73932.00;;;-146.65;40.56
57094;BME280;42970;50.996;3.706;2023-04-21T10:34:34;73932.00;;;-146.65;40.42
57094;BME280;42970;50.996;3.706;2023-04-21T10:39:35;73764.66;;;-146.65;40.42
57094;BME280;42970;50.996;3.706;2023-04-21T10:44:50;73845.31;;;-146.65;39.99
57094;BME280;42970;50.996;3.706;2023-04-21T10:47:27;73673.94;;;-146.65;39.82
57094;BME280;42970;50.996;3.706;2023-04-21T10:49:54;73629.56;;;-146.65;37.74
57094;BME280;42970;50.996;3.706;2023-04-21T10:52:19;73831.19;;;-146.65;40.50
57094;BME280;42970;50.996;3.706;2023-04-21T10:57:17;73742.47;;;-146.65;38.83
57094;BME280;42970;50.996;3.706;2023-04-21T10:59:43;73690.06;;;-146.65;37.90
57094;BME280;42970;50.996;3.706;2023-04-21T11:02:13;73704.16;;;-146.65;38.25
57094;BME280;42970;50.996;3.706;2023-04-21T11:04:38;73559.00;;;-146.65;36.63
57094;BME280;42970;50.996;3.706;2023-04-21T11:07:12;73579.16;;;-146.65;37.11
57094;BME280;42970;50.996;3.706;2023-04-21T11:09:39;73605.38;;;-146.65;36.27
57094;BME280;42970;50.996;3.706;2023-04-21T11:12:05;73452.16;;;-146.65;35.49
57094;BME280;42970;50.996;3.706;2023-04-21T11:14:34;73774.72;;;-146.65;37.74
57094;BME280;42970;50.996;3.706;2023-04-21T11:17:03;73694.09;;;-146.65;37.67
57094;BME280;42970;50.996;3.706;2023-04-21T11:19:32;73615.47;;;-146.65;37.05
57094;BME280;42970;50.996;3.706;2023-04-21T11:21:57;73538.84;;;-146.65;36.30
57094;BME280;42970;50.996;3.706;2023-04-21T11:24:23;73577.16;;;-146.65;35.03
57094;BME280;42970;50.996;3.706;2023-04-21T11:26:48;73577.16;;;-146.65;35.31
57094;BME280;42970;50.996;3.706;2023-04-21T11:29:13;73653.75;;;-146.65;36.46
57094;BME280;42970;50.996;3.706;2023-04-21T11:31:40;73677.97;;;-146.65;36.51
57094;BME280;42970;50.996;3.706;2023-04-21T11:34:06;73641.66;;;-146.65;35.93
57094;BME280;42970;50.996;3.706;2023-04-21T11:36:32;73599.34;;;-146.65;35.58
57094;BME280;42970;50.996;3.706;2023-04-21T11:38:57;73538.84;;;-146.65;35.32
57094;BME280;42970;50.996;3.706;2023-04-21T11:41:23;73498.53;;;-146.65;33.21
57094;BME280;42970;50.996;3.706;2023-04-21T11:43:49;73369.50;;;-146.65;33.22
57094;BME280;42970;50.996;3.706;2023-04-21T11:46:23;73480.38;;;-146.65;34.41
57094;BME280;42970;50.996;3.706;2023-04-21T11:49:06;73472.31;;;-146.65;34.18
57094;BME280;42970;50.996;3.706;2023-04-21T11:51:32;73472.31;;;-146.65;33.77
57094;BME280;42970;50.996;3.706;2023-04-21T11:53:58;73432.00;;;-146.65;33.50
57094;BME280;42970;50.996;3.706;2023-04-21T11:56:23;73577.16;;;-146.65;33.03
57094;BME280;42970;50.996;3.706;2023-04-21T11:58:49;73526.75;;;-146.65;33.62
57094;BME280;42970;50.996;3.706;2023-04-21T12:01:19;73379.59;;;-146.65;33.09
57094;BME280;42970;50.996;3.706;2023-04-21T12:03:54;73385.63;;;-146.65;32.04
57094;BME280;42970;50.996;3.706;2023-04-21T12:06:25;73405.78;;;-146.65;31.82
57094;BME280;42970;50.996;3.706;2023-04-21T12:08:56;73502.56;;;-146.65;32.30
57094;BME280;42970;50.996;3.706;2023-04-21T12:11:24;73411.84;;;-146.65;32.04
57094;BME280;42970;50.996;3.706;2023-04-21T12:13:51;73371.53;;;-146.65;31.69
57094;BME280;42970;50.996;3.706;2023-04-21T12:16:16;73381.59;;;-146.65;31.60
57094;BME280;42970;50.996;3.706;2023-04-21T12:18:42;73399.75;;;-146.65;31.23
57094;BME280;42970;50.996;3.706;2023-04-21T12:21:07;73260.66;;;-146.65;30.72
57094;BME280;42970;50.996;3.706;2023-04-21T12:23:33;73353.38;;;-146.65;31.24
57094;BME280;42970;50.996;3.706;2023-04-21T12:25:58;73302.97;;;-146.65;31.56
57094;BME280;42970;50.996;3.706;2023-04-21T12:28:24;73335.22;;;-146.65;31.02
57094;BME280;42970;50.996;3.706;2023-04-21T12:30:50;73470.31;;;-146.65;32.07
57094;BME280;42970;50.996;3.706;2023-04-21T12:33:15;73298.94;;;-146.65;30.80
57094;BME280;42970;50.996;3.706;2023-04-21T12:35:41;73538.84;;;-146.65;31.55
57094;BME280;42970;50.996;3.706;2023-04-21T12:38:06;73534.81;;;-146.65;33.28
57094;BME280;42970;50.996;3.706;2023-04-21T12:40:32;73307.00;;;-146.65;31.57
57094;BME280;42970;50.996;3.706;2023-04-21T12:42:57;73192.09;;;-146.65;30.41